| time (UTC) | temp F | wind direction | speed knots | gust knots | rain 1hr in | rain 24hr in | rain mn in | humidity % | barometer mb |
| 20260510224623 | 82 | 51 | 0.0 | 1.7 | 0.00 | 0.00 | 0.00 | 72 | 1014.0 |
| 20260510223018 | 82 | 66 | 0.0 | 4.3 | 0.00 | 0.00 | 0.00 | 67 | 1013.9 |
| 20260510221515 | 83 | 4 | 1.7 | 4.3 | 0.00 | 0.00 | 0.00 | 67 | 1013.5 |
| 20260510220114 | 83 | 336 | 0.9 | 5.2 | 0.00 | 0.00 | 0.00 | 64 | 1013.6 |
| 20260510214511 | 84 | 43 | 2.6 | 7.0 | 0.00 | 0.00 | 0.00 | 65 | 1013.6 |
| 20260510213007 | 84 | 354 | 1.7 | 7.0 | 0.00 | 0.00 | 0.00 | 67 | 1014.1 |
| 20260510211519 | 83 | 285 | 1.7 | 6.1 | 0.00 | 0.00 | 0.00 | 67 | 1014.5 |
| 20260510210008 | 85 | 338 | 1.7 | 6.1 | 0.00 | 0.00 | 0.00 | 65 | 1014.9 |
| 20260510204508 | 84 | 260 | 1.7 | 8.7 | 0.00 | 0.00 | 0.00 | 63 | 1015.2 |
| 20260510203008 | 84 | 359 | 2.6 | 7.8 | 0.00 | 0.00 | 0.00 | 63 | 1015.0 |
| 20260510201616 | 83 | 341 | 2.6 | 8.7 | 0.00 | 0.00 | 0.00 | 66 | 1015.3 |
| 20260510194516 | 86 | 55 | 0.0 | 7.0 | 0.00 | 0.00 | 0.00 | 59 | 1015.4 |
| 20260510193113 | 86 | 4 | 2.6 | 5.2 | 0.00 | 0.00 | 0.00 | 61 | 1015.5 |
| 20260510191526 | 85 | 36 | 1.7 | 6.1 | 0.00 | 0.00 | 0.00 | 61 | 1015.3 |
| 20260510190012 | 84 | 63 | 0.0 | 6.1 | 0.00 | 0.00 | 0.00 | 65 | 1014.7 |
| 20260510184505 | 85 | 87 | 1.7 | 5.2 | 0.00 | 0.00 | 0.00 | 63 | 1014.9 |
| 20260510183006 | 85 | 127 | 0.0 | 0.9 | 0.00 | 0.00 | 0.00 | 65 | 1014.8 |
| 20260510181613 | 83 | 29 | 0.9 | 5.2 | 0.00 | 0.00 | 0.00 | 67 | 1014.8 |
| 20260510174511 | 85 | 354 | 0.9 | 4.3 | 0.00 | 0.00 | 0.00 | 65 | 1014.5 |
| 20260510173011 | 83 | 38 | 1.7 | 6.1 | 0.00 | 0.00 | 0.00 | 65 | 1014.0 |
| 20260510171510 | 83 | 64 | 2.6 | 7.0 | 0.00 | 0.00 | 0.00 | 68 | 1013.9 |
| 20260510170007 | 82 | 143 | 0.0 | 4.3 | 0.00 | 0.00 | 0.00 | 74 | 1013.6 |
| 20260510164511 | 82 | 40 | 0.0 | 7.8 | 0.00 | 0.00 | 0.00 | 74 | 1013.3 |
| 20260510163006 | 80 | 69 | 0.0 | 6.1 | 0.00 | 0.00 | 0.00 | 75 | 1013.2 |
| 20260510161506 | 80 | 48 | 0.0 | 3.5 | 0.00 | 0.00 | 0.00 | 77 | 1013.4 |
| 20260510160132 | 78 | 27 | 0.0 | 4.3 | 0.00 | 0.00 | 0.00 | 79 | 1012.9 |
| 20260510154515 | 74 | 164 | 0.0 | 3.5 | 0.00 | 0.00 | 0.00 | 85 | 1012.2 |
| 20260510153104 | 74 | 302 | 0.0 | 0.0 | 0.00 | 0.00 | 0.00 | 85 | 1012.5 |
| 20260510151615 | 74 | 224 | 0.0 | 0.0 | 0.00 | 0.00 | 0.00 | 86 | 1012.8 |
| 20260510150019 | 72 | 189 | 0.0 | 1.7 | 0.00 | 0.00 | 0.00 | 89 | 1012.9 |
| 20260510144625 | 71 | 57 | 0.0 | 0.0 | 0.00 | 0.00 | 0.00 | 90 | 1013.5 |
| 20260510143105 | 71 | 130 | 0.0 | 0.9 | 0.00 | 0.00 | 0.00 | 89 | 1014.2 |
| 20260510141609 | 71 | 359 | 0.0 | 0.0 | 0.00 | 0.00 | 0.00 | 89 | 1014.8 |
| 20260510140113 | 71 | 73 | 0.0 | 0.9 | 0.00 | 0.00 | 0.00 | 89 | 1015.0 |
| 20260510134520 | 71 | 87 | 0.0 | 0.9 | 0.00 | 0.00 | 0.00 | 90 | 1015.3 |
| 20260510133014 | 70 | 54 | 0.0 | 1.7 | 0.00 | 0.00 | 0.00 | 92 | 1015.4 |
| 20260510131515 | 70 | 78 | 0.0 | 0.0 | 0.00 | 0.00 | 0.00 | 92 | 1015.7 |
| 20260510130020 | 69 | 354 | 0.0 | 0.0 | 0.00 | 0.00 | 0.00 | 92 | 1015.7 |
| 20260510124508 | 69 | 316 | 0.0 | 0.0 | 0.00 | 0.00 | 0.00 | 92 | 1016.0 |
| 20260510123110 | 69 | 294 | 0.0 | 0.0 | 0.00 | 0.00 | 0.00 | 91 | 1016.0 |
| 20260510121518 | 69 | 235 | 0.0 | 0.9 | 0.00 | 0.00 | 0.00 | 91 | 1015.8 |
| 20260510120012 | 69 | 269 | 0.9 | 4.3 | 0.00 | 0.00 | 0.00 | 91 | 1015.8 |
| 20260510114511 | 69 | 244 | 0.9 | 6.1 | 0.00 | 0.00 | 0.00 | 92 | 1015.6 |
| 20260510113106 | 68 | 296 | 0.0 | 0.0 | 0.00 | 0.00 | 0.00 | 93 | 1015.1 |
| 20260510111607 | 68 | 47 | 0.0 | 0.0 | 0.00 | 0.00 | 0.00 | 93 | 1014.0 |
| 20260510110031 | 68 | 47 | 0.0 | 0.0 | 0.00 | 0.00 | 0.00 | 93 | 1013.5 |
| 20260510104606 | 68 | 47 | 0.0 | 0.0 | 0.00 | 0.00 | 0.00 | 93 | 1013.5 |
| 20260510103010 | 68 | 47 | 0.0 | 0.0 | 0.00 | 0.00 | 0.00 | 93 | 1013.0 |
| 20260510101515 | 68 | 59 | 0.0 | 0.0 | 0.00 | 0.00 | 0.00 | 93 | 1012.8 |
| 20260510100006 | 68 | 59 | 0.0 | 0.0 | 0.00 | 0.00 | 0.00 | 93 | 1012.8 |
| 20260510094539 | 68 | 59 | 0.0 | 0.0 | 0.00 | 0.00 | 0.00 | 93 | 1013.1 |
| 20260510093020 | 68 | 59 | 0.0 | 0.0 | 0.00 | 0.00 | 0.00 | 93 | 1012.9 |
| 20260510091606 | 68 | 59 | 0.0 | 0.0 | 0.00 | 0.00 | 0.00 | 93 | 1013.0 |
| 20260510090010 | 68 | 59 | 0.0 | 0.0 | 0.00 | 0.00 | 0.00 | 93 | 1012.8 |
| 20260510084608 | 68 | 59 | 0.0 | 0.0 | 0.00 | 0.00 | 0.00 | 93 | 1012.4 |
| 20260510083103 | 68 | 59 | 0.0 | 0.0 | 0.00 | 0.00 | 0.00 | 93 | 1011.9 |
| 20260510080006 | 68 | 59 | 0.0 | 0.0 | 0.00 | 0.43 | 0.00 | 93 | 1011.1 |
| 20260510074506 | 68 | 59 | 0.0 | 0.0 | 0.00 | 0.43 | 0.00 | 93 | 1011.3 |
| 20260510073018 | 68 | 59 | 0.0 | 0.0 | 0.00 | 0.43 | 0.00 | 93 | 1011.2 |
| 20260510071517 | 68 | 59 | 0.0 | 0.0 | 0.00 | 0.43 | 0.00 | 93 | 1011.4 |
| 20260510070028 | 67 | 59 | 0.0 | 0.0 | 0.00 | 0.43 | 0.00 | 93 | 1011.7 |
| 20260510063017 | 67 | 50 | 0.0 | 0.0 | 0.00 | 1.20 | 0.00 | 93 | 1011.2 |
| 20260510061514 | 67 | 60 | 0.0 | 0.0 | 0.00 | 1.20 | 0.00 | 93 | 1011.2 |
| 20260510060021 | 67 | 60 | 0.0 | 0.0 | 0.00 | 1.20 | 0.00 | 93 | 1011.3 |
| 20260510054617 | 67 | 60 | 0.0 | 0.0 | 0.00 | 1.20 | 0.00 | 93 | 1011.2 |
| 20260510053043 | 67 | 60 | 0.0 | 0.0 | 0.00 | 1.20 | 0.00 | 94 | 1011.2 |
| 20260510051515 | 68 | 60 | 0.0 | 0.0 | 0.00 | 1.20 | 0.00 | 94 | 1011.1 |
| 20260510050018 | 68 | 58 | 0.0 | 0.0 | 0.00 | 1.20 | 0.00 | 94 | 1011.3 |
| 20260510044518 | 67 | 54 | 0.0 | 0.0 | 0.00 | 1.20 | 1.20 | 93 | 1011.2 |
| 20260510043033 | 68 | 54 | 0.0 | 0.0 | 0.00 | 1.20 | 1.20 | 93 | 1011.2 |
| 20260510041604 | 68 | 54 | 0.0 | 0.0 | 0.00 | 1.20 | 1.20 | 92 | 1011.3 |
| 20260510040008 | 68 | 43 | 0.0 | 0.0 | 0.00 | 1.20 | 1.20 | 92 | 1011.3 |
| 20260510034504 | 68 | 28 | 0.0 | 0.0 | 0.00 | 1.20 | 1.20 | 91 | 1011.5 |
| 20260510033113 | 68 | 28 | 0.0 | 0.0 | 0.00 | 1.20 | 1.20 | 91 | 1011.6 |
| 20260510031604 | 69 | 28 | 0.0 | 0.0 | 0.00 | 1.20 | 1.20 | 90 | 1011.5 |
| 20260510030105 | 69 | 28 | 0.0 | 0.0 | 0.00 | 1.20 | 1.20 | 90 | 1011.3 |
| 20260510024614 | 70 | 27 | 0.0 | 0.0 | 0.00 | 1.20 | 1.20 | 89 | 1011.2 |
| 20260510023017 | 70 | 48 | 0.0 | 0.0 | 0.00 | 1.20 | 1.20 | 89 | 1010.9 |
| 20260510021608 | 70 | 44 | 0.0 | 0.0 | 0.00 | 1.20 | 1.20 | 88 | 1010.8 |
| 20260510020107 | 70 | 68 | 0.0 | 0.0 | 0.00 | 1.20 | 1.20 | 89 | 1010.4 |
| 20260510014516 | 70 | 332 | 0.0 | 0.0 | 0.00 | 1.20 | 1.20 | 89 | 1010.2 |
| 20260510013022 | 70 | 233 | 0.0 | 0.0 | 0.00 | 1.20 | 1.20 | 88 | 1009.9 |
| 20260510011604 | 70 | 135 | 0.0 | 0.0 | 0.00 | 1.20 | 1.20 | 86 | 1009.9 |
| 20260510010005 | 71 | 300 | 0.0 | 0.0 | 0.00 | 1.20 | 1.20 | 85 | 1010.2 |
| 20260510004506 | 72 | 63 | 0.0 | 0.9 | 0.00 | 1.20 | 1.20 | 84 | 1010.1 |
| 20260510003007 | 72 | 190 | 0.0 | 6.1 | 0.00 | 1.20 | 1.20 | 84 | 1009.8 |
| 20260510001522 | 72 | 273 | 0.0 | 1.7 | 0.00 | 1.20 | 1.20 | 84 | 1009.5 |
| 20260510000107 | 72 | 60 | 0.0 | 0.0 | 0.00 | 1.20 | 1.20 | 84 | 1009.5 |
| 20260509234606 | 73 | 283 | 0.0 | 5.2 | 0.00 | 1.20 | 1.20 | 85 | 1009.3 |
| 20260509233010 | 74 | 291 | 0.9 | 4.3 | 0.00 | 1.20 | 1.20 | 84 | 1009.3 |
| 20260509231518 | 77 | 255 | 0.9 | 7.0 | 0.00 | 1.20 | 1.20 | 80 | 1009.1 |
| 20260509230016 | 81 | 92 | 0.0 | 0.0 | 0.00 | 1.20 | 1.20 | 78 | 1008.7 |